createdAt,value
2018-04-19T00:00:38.945Z,13.32
2018-04-19T00:01:43.618Z,13.25
2018-04-19T00:02:48.713Z,13.12
2018-04-19T00:03:54.033Z,13.17
2018-04-19T00:04:59.099Z,13.21
2018-04-19T00:06:05.210Z,13.05
2018-04-19T00:07:10.016Z,13.00
2018-04-19T00:08:15.402Z,13.08
2018-04-19T00:09:21.752Z,13.11
2018-04-19T00:10:27.730Z,13.30
2018-04-19T00:11:33.573Z,13.24
2018-04-19T00:12:38.657Z,13.11
2018-04-19T00:13:46.293Z,13.22
2018-04-19T00:14:50.953Z,13.10
2018-04-19T00:15:56.133Z,12.98
2018-04-19T00:17:01.098Z,13.03
2018-04-19T00:18:06.511Z,12.98
2018-04-19T00:19:11.940Z,12.83
2018-04-19T00:20:17.286Z,12.81
2018-04-19T00:21:21.934Z,12.79
2018-04-19T00:22:27.483Z,12.83
2018-04-19T00:23:33.270Z,12.69
2018-04-19T00:24:38.847Z,12.73
2018-04-19T00:25:44.338Z,12.82
2018-04-19T00:26:49.112Z,12.73
2018-04-19T00:27:55.502Z,12.69
2018-04-19T00:29:00.890Z,12.94
2018-04-19T00:30:06.190Z,13.06
2018-04-19T00:31:12.039Z,13.17
2018-04-19T00:32:17.413Z,13.13
2018-04-19T00:33:23.118Z,13.05
2018-04-19T00:34:28.325Z,12.83
2018-04-19T00:35:33.777Z,12.68
2018-04-19T00:36:40.800Z,12.56
2018-04-19T00:37:46.778Z,12.53
2018-04-19T00:38:51.318Z,12.57
2018-04-19T00:39:56.434Z,12.44
2018-04-19T00:41:02.558Z,12.44
2018-04-19T00:42:07.860Z,12.43
2018-04-19T00:43:13.612Z,12.43
2018-04-19T00:44:18.948Z,12.36
2018-04-19T00:45:24.551Z,12.29
2018-04-19T00:46:30.368Z,12.26
2018-04-19T00:47:35.511Z,12.25
2018-04-19T00:48:40.622Z,12.23
2018-04-19T00:49:46.232Z,12.16
2018-04-19T00:50:51.231Z,12.14
2018-04-19T00:51:56.846Z,12.00
2018-04-19T00:53:05.696Z,12.07
2018-04-19T00:54:10.253Z,12.15
2018-04-19T00:55:14.754Z,12.37
2018-04-19T00:56:20.141Z,12.49
2018-04-19T00:57:25.065Z,12.63
2018-04-19T00:58:30.079Z,12.86
2018-04-19T00:59:35.175Z,13.07
2018-04-19T01:00:40.093Z,12.97
2018-04-19T01:01:46.145Z,12.81
2018-04-19T01:02:56.703Z,12.70
2018-04-19T01:04:01.224Z,12.71
2018-04-19T01:05:05.744Z,12.60
2018-04-19T01:06:10.228Z,12.54
2018-04-19T01:07:14.897Z,12.48
2018-04-19T01:08:20.575Z,12.36
2018-04-19T01:09:26.128Z,12.40
2018-04-19T01:10:30.875Z,12.25
2018-04-19T01:11:36.994Z,12.07
2018-04-19T01:12:42.595Z,12.15
2018-04-19T01:13:47.400Z,12.13
2018-04-19T01:14:52.458Z,12.17
2018-04-19T01:15:58.415Z,12.20
2018-04-19T01:17:04.223Z,12.32
2018-04-19T01:18:09.305Z,12.30
2018-04-19T01:19:14.985Z,12.05
2018-04-19T01:20:19.915Z,11.93
2018-04-19T01:21:24.723Z,11.94
2018-04-19T01:22:31.474Z,11.92
2018-04-19T01:23:37.012Z,11.73
2018-04-19T01:24:42.180Z,11.79
2018-04-19T01:25:49.734Z,11.85
2018-04-19T01:26:54.275Z,11.95
2018-04-19T01:27:58.833Z,12.05
2018-04-19T01:29:04.389Z,11.97
2018-04-19T01:30:09.781Z,11.98
2018-04-19T01:31:14.718Z,12.07
2018-04-19T01:32:20.174Z,12.21
2018-04-19T01:33:25.634Z,12.23
2018-04-19T01:34:30.770Z,12.31
2018-04-19T01:35:40.329Z,12.22
2018-04-19T01:36:44.759Z,12.31
2018-04-19T01:37:49.469Z,12.33
2018-04-19T01:38:54.467Z,12.47
2018-04-19T01:39:59.624Z,12.54
2018-04-19T01:41:06.101Z,12.59
2018-04-19T01:42:11.414Z,12.71
2018-04-19T01:43:16.973Z,12.88
2018-04-19T01:44:22.886Z,12.71
2018-04-19T01:45:28.050Z,12.64
2018-04-19T01:46:32.886Z,12.65
2018-04-19T01:47:37.624Z,12.55
2018-04-19T01:48:43.461Z,12.41
2018-04-19T01:49:49.083Z,12.56
2018-04-19T01:50:54.742Z,12.66
2018-04-19T01:52:00.659Z,12.53
2018-04-19T01:53:05.570Z,12.57
2018-04-19T01:54:10.846Z,12.51
2018-04-19T01:55:17.623Z,12.45
2018-04-19T01:56:23.636Z,12.50
2018-04-19T01:57:28.937Z,12.42
2018-04-19T01:58:33.648Z,12.47
2018-04-19T01:59:38.327Z,12.41
2018-04-19T02:00:43.461Z,12.24
2018-04-19T02:01:49.171Z,12.31
2018-04-19T02:02:54.536Z,12.35
2018-04-19T02:04:00.534Z,12.25
2018-04-19T02:05:06.385Z,12.09
2018-04-19T02:06:12.294Z,11.98
2018-04-19T02:07:18.488Z,12.04
2018-04-19T02:08:23.487Z,12.06
2018-04-19T02:09:28.427Z,11.98
2018-04-19T02:10:33.387Z,11.96
2018-04-19T02:11:38.504Z,11.92
2018-04-19T02:12:45.202Z,12.00
2018-04-19T02:13:50.924Z,12.18
2018-04-19T02:14:56.204Z,12.23
2018-04-19T02:16:01.324Z,12.24
2018-04-19T02:17:07.195Z,12.26
2018-04-19T02:18:12.320Z,12.23
2018-04-19T02:19:17.374Z,12.24
2018-04-19T02:20:23.774Z,12.27
2018-04-19T02:21:28.858Z,12.34
2018-04-19T02:22:33.777Z,12.43
2018-04-19T02:23:39.514Z,12.43
2018-04-19T02:24:45.447Z,12.17
2018-04-19T02:25:52.127Z,12.05
2018-04-19T02:26:57.354Z,11.99
2018-04-19T02:28:02.764Z,11.98
2018-04-19T02:29:08.931Z,11.85
2018-04-19T02:30:13.650Z,11.77
2018-04-19T02:31:18.660Z,11.67
2018-04-19T02:32:24.387Z,11.53
2018-04-19T02:33:29.943Z,11.37
2018-04-19T02:34:35.469Z,11.60
2018-04-19T02:35:40.848Z,11.77
2018-04-19T02:36:45.999Z,11.79
2018-04-19T02:37:51.131Z,11.80
2018-04-19T02:38:56.519Z,11.83
2018-04-19T02:40:01.445Z,11.90
2018-04-19T02:41:07.073Z,11.72
2018-04-19T02:42:12.138Z,11.76
2018-04-19T02:43:18.491Z,11.70
2018-04-19T02:44:23.688Z,11.64
2018-04-19T02:45:29.588Z,11.50
2018-04-19T02:46:35.342Z,11.60
2018-04-19T02:47:40.551Z,11.58
2018-04-19T02:48:46.629Z,11.49
2018-04-19T02:49:51.656Z,11.29
2018-04-19T02:50:57.546Z,11.19
2018-04-19T02:52:02.959Z,11.09
2018-04-19T02:53:08.850Z,11.07
2018-04-19T02:54:13.707Z,10.95
2018-04-19T02:55:19.154Z,10.87
2018-04-19T02:56:24.668Z,10.87
2018-04-19T02:57:30.525Z,10.97
2018-04-19T02:58:36.325Z,10.98
2018-04-19T02:59:41.217Z,11.13
2018-04-19T03:00:46.906Z,11.32
2018-04-19T03:01:52.225Z,11.25
2018-04-19T03:02:57.599Z,11.28
2018-04-19T03:04:03.358Z,11.24
2018-04-19T03:05:08.664Z,11.27
2018-04-19T03:06:14.911Z,11.27
2018-04-19T03:07:21.097Z,11.34
2018-04-19T03:08:25.593Z,11.29
2018-04-19T03:09:30.547Z,11.35
2018-04-19T03:10:36.209Z,11.28
2018-04-19T03:11:41.828Z,11.28
2018-04-19T03:12:46.951Z,11.22
2018-04-19T03:13:53.114Z,11.18
2018-04-19T03:14:58.737Z,11.25
2018-04-19T03:16:04.600Z,11.46
2018-04-19T03:17:10.182Z,11.58
2018-04-19T03:18:15.191Z,11.61
2018-04-19T03:19:20.096Z,11.50
2018-04-19T03:20:26.073Z,11.57
2018-04-19T03:21:31.100Z,11.65
2018-04-19T03:22:36.036Z,11.58
2018-04-19T03:23:42.673Z,11.66
2018-04-19T03:24:47.912Z,11.59
2018-04-19T03:25:53.422Z,11.51
2018-04-19T03:26:59.493Z,11.42
2018-04-19T03:28:04.684Z,11.33
2018-04-19T03:29:09.726Z,11.22
2018-04-19T03:30:15.879Z,11.28
2018-04-19T03:31:21.343Z,11.46
2018-04-19T03:32:26.206Z,11.64
2018-04-19T03:33:31.851Z,11.64
2018-04-19T03:34:37.980Z,11.58
2018-04-19T03:35:43.746Z,11.61
2018-04-19T03:36:49.523Z,11.65
2018-04-19T03:37:54.467Z,11.63
2018-04-19T03:38:59.991Z,11.68
2018-04-19T03:40:05.443Z,11.56
2018-04-19T03:41:10.756Z,11.38
2018-04-19T03:42:17.015Z,11.48
2018-04-19T03:43:22.604Z,11.41
2018-04-19T03:44:28.235Z,11.59
2018-04-19T03:45:33.303Z,11.58
2018-04-19T03:46:38.908Z,11.25
2018-04-19T03:47:43.782Z,11.33
2018-04-19T03:48:49.944Z,11.15
2018-04-19T03:49:54.854Z,11.16
2018-04-19T03:51:00.817Z,10.92
2018-04-19T03:52:07.192Z,11.09
2018-04-19T03:53:13.821Z,10.94
2018-04-19T03:54:18.418Z,10.98
2018-04-19T03:55:23.654Z,10.95
2018-04-19T03:56:28.571Z,10.81
2018-04-19T03:57:34.398Z,10.72
2018-04-19T03:58:39.769Z,10.73
2018-04-19T03:59:44.790Z,10.88
2018-04-19T04:00:50.585Z,10.80
2018-04-19T04:01:56.642Z,10.66
2018-04-19T04:03:02.031Z,10.72
2018-04-19T04:04:08.504Z,10.84
2018-04-19T04:05:13.392Z,10.86
2018-04-19T04:06:18.591Z,10.63
2018-04-19T04:07:23.450Z,10.75
2018-04-19T04:08:29.251Z,10.84
2018-04-19T04:09:34.859Z,10.90
2018-04-19T04:10:40.175Z,10.88
2018-04-19T04:11:45.737Z,10.70
2018-04-19T04:12:50.843Z,10.71
2018-04-19T04:13:56.378Z,10.87
2018-04-19T04:15:01.737Z,10.67
2018-04-19T04:16:07.462Z,10.48
2018-04-19T04:17:17.469Z,10.56
2018-04-19T04:20:32.443Z,10.61
2018-04-19T04:21:41.247Z,10.79
2018-04-19T04:22:51.070Z,10.83
2018-04-19T04:23:56.183Z,10.83
2018-04-19T04:25:02.989Z,10.88
2018-04-19T04:26:08.409Z,10.90
2018-04-19T04:27:13.917Z,10.95
2018-04-19T04:28:18.840Z,11.01
2018-04-19T04:29:24.314Z,10.95
2018-04-19T04:30:30.212Z,10.83
2018-04-19T04:31:34.928Z,10.85
2018-04-19T04:32:40.798Z,10.81
2018-04-19T04:33:46.253Z,10.76
2018-04-19T04:34:51.710Z,10.73
2018-04-19T04:35:57.544Z,10.62
2018-04-19T04:37:03.108Z,10.38
2018-04-19T04:38:07.979Z,10.19
2018-04-19T04:39:13.986Z,10.14
2018-04-19T04:40:19.808Z,10.10
2018-04-19T04:41:24.609Z,10.26
2018-04-19T04:42:30.364Z,10.33
2018-04-19T04:43:35.607Z,10.40
2018-04-19T04:44:40.601Z,10.31
2018-04-19T04:45:47.491Z,10.21
2018-04-19T04:46:52.241Z,10.22
2018-04-19T04:47:57.939Z,10.36
2018-04-19T04:49:04.516Z,10.47
2018-04-19T04:50:09.638Z,10.69
2018-04-19T04:51:14.258Z,10.77
2018-04-19T04:52:20.170Z,10.87
2018-04-19T04:53:25.018Z,10.96
2018-04-19T04:54:30.089Z,11.03
2018-04-19T04:55:35.387Z,10.97
2018-04-19T04:56:41.822Z,10.98
2018-04-19T04:57:46.925Z,11.13
2018-04-19T04:58:52.986Z,11.09
2018-04-19T04:59:59.048Z,10.98
2018-04-19T05:01:04.056Z,10.96
2018-04-19T05:02:08.764Z,10.77
2018-04-19T05:03:14.365Z,10.70
2018-04-19T05:04:19.199Z,10.62
2018-04-19T05:05:25.708Z,10.61
2018-04-19T05:06:30.651Z,10.68
2018-04-19T05:07:36.826Z,10.73
2018-04-19T05:08:43.161Z,10.91
2018-04-19T05:09:48.036Z,10.98
2018-04-19T05:10:53.967Z,10.87
2018-04-19T05:11:59.476Z,10.97
2018-04-19T05:13:04.680Z,11.11
2018-04-19T05:14:09.822Z,11.06
2018-04-19T05:15:15.393Z,10.97
2018-04-19T05:16:21.934Z,11.02
2018-04-19T05:17:26.428Z,11.15
2018-04-19T05:18:32.121Z,11.31
2018-04-19T05:19:36.723Z,11.15
2018-04-19T05:20:41.052Z,10.98
2018-04-19T05:21:46.764Z,11.04
2018-04-19T05:22:51.152Z,11.04
2018-04-19T05:23:56.404Z,10.93
2018-04-19T05:25:01.102Z,10.99
2018-04-19T05:26:06.712Z,11.09
2018-04-19T05:27:11.350Z,11.07
2018-04-19T05:28:17.386Z,10.89
2018-04-19T05:29:21.853Z,10.95
2018-04-19T05:30:29.301Z,10.92
2018-04-19T05:31:35.262Z,10.86
2018-04-19T05:32:39.971Z,10.94
2018-04-19T05:33:44.863Z,11.08
2018-04-19T05:34:49.446Z,11.31
2018-04-19T05:35:54.112Z,11.53
2018-04-19T05:36:58.869Z,11.60
2018-04-19T05:38:03.445Z,11.49
2018-04-19T05:39:08.229Z,11.34
2018-04-19T05:40:12.813Z,11.31
2018-04-19T05:41:18.220Z,11.40
2018-04-19T05:42:22.621Z,11.45
2018-04-19T05:43:28.540Z,11.41
2018-04-19T05:44:32.948Z,11.54
2018-04-19T05:45:38.727Z,11.54
2018-04-19T05:46:43.128Z,11.59
2018-04-19T05:47:48.537Z,11.75
2018-04-19T05:48:53.235Z,11.94
2018-04-19T05:49:59.346Z,11.89
2018-04-19T05:51:03.993Z,12.09
2018-04-19T05:52:09.943Z,12.16
2018-04-19T05:53:14.495Z,12.24
2018-04-19T05:54:19.775Z,12.15
2018-04-19T05:55:24.901Z,12.15
2018-04-19T05:56:29.622Z,12.25
2018-04-19T05:57:34.593Z,12.29
2018-04-19T05:58:39.433Z,12.42
2018-04-19T05:59:44.025Z,12.67
2018-04-19T06:00:48.601Z,12.81
2018-04-19T06:01:53.549Z,12.92
2018-04-19T06:02:58.386Z,12.95
2018-04-19T06:04:03.866Z,12.93
2018-04-19T06:05:09.181Z,12.87
2018-04-19T06:06:14.375Z,12.91
2018-04-19T06:07:19.553Z,13.12
2018-04-19T06:08:26.046Z,13.10
2018-04-19T06:09:32.262Z,13.14
2018-04-19T06:10:37.559Z,13.15
2018-04-19T06:11:43.066Z,13.24
2018-04-19T06:12:48.064Z,13.23
2018-04-19T06:13:53.478Z,13.29
2018-04-19T06:14:58.927Z,13.52
2018-04-19T06:16:04.930Z,13.57
2018-04-19T06:17:10.739Z,13.41
2018-04-19T06:18:15.755Z,13.37
2018-04-19T06:19:21.239Z,13.60
2018-04-19T06:20:27.583Z,13.47
2018-04-19T06:21:32.365Z,13.40
2018-04-19T06:22:38.346Z,13.63
2018-04-19T06:23:43.077Z,13.79
2018-04-19T06:24:48.458Z,13.90
2018-04-19T06:25:53.674Z,14.03
2018-04-19T06:26:59.203Z,14.41
2018-04-19T06:28:04.492Z,14.45
2018-04-19T06:29:09.862Z,14.61
2018-04-19T06:30:15.839Z,14.93
2018-04-19T06:31:21.616Z,14.91
2018-04-19T06:32:27.292Z,15.14
2018-04-19T06:33:32.645Z,15.31
2018-04-19T06:34:37.435Z,15.35
2018-04-19T06:35:42.491Z,15.48
2018-04-19T06:36:47.668Z,15.70
2018-04-19T06:37:55.339Z,15.98
2018-04-19T06:38:59.947Z,16.02
2018-04-19T06:40:05.647Z,16.30
2018-04-19T06:41:10.358Z,16.68
2018-04-19T06:42:15.730Z,17.02
2018-04-19T06:43:21.290Z,17.30
2018-04-19T06:44:26.889Z,18.97
2018-04-19T06:45:31.732Z,20.09
2018-04-19T06:46:37.300Z,20.13
2018-04-19T06:47:42.274Z,19.83
2018-04-19T06:48:47.556Z,19.46
2018-04-19T06:49:54.346Z,19.35
2018-04-19T06:50:59.704Z,19.12
2018-04-19T06:52:05.239Z,18.64
2018-04-19T06:53:11.148Z,18.33
2018-04-19T06:54:16.905Z,18.37
2018-04-19T06:55:22.444Z,18.48
2018-04-19T06:56:28.288Z,18.98
2018-04-19T06:57:33.362Z,18.59
2018-04-19T06:58:38.919Z,18.46
2018-04-19T06:59:44.941Z,18.92
2018-04-19T07:00:49.980Z,19.49
2018-04-19T07:01:55.804Z,18.96
2018-04-19T07:03:00.692Z,18.77
2018-04-19T07:04:06.715Z,19.14
2018-04-19T07:05:11.481Z,18.65
2018-04-19T07:06:17.652Z,19.23
2018-04-19T07:07:23.203Z,19.51
2018-04-19T07:08:28.606Z,19.61
2018-04-19T07:09:34.694Z,19.88
2018-04-19T07:10:39.610Z,19.85
2018-04-19T07:11:45.537Z,20.24
2018-04-19T07:12:53.335Z,19.99
2018-04-19T07:13:58.023Z,19.71
2018-04-19T07:15:02.909Z,20.07
2018-04-19T07:16:08.351Z,20.40
2018-04-19T07:17:13.228Z,20.82
2018-04-19T07:18:18.857Z,20.68
2018-04-19T07:19:24.596Z,20.43
2018-04-19T07:20:30.272Z,20.35
2018-04-19T07:21:35.780Z,20.66
2018-04-19T07:22:41.920Z,20.87
2018-04-19T07:23:46.660Z,21.15
2018-04-19T07:24:52.013Z,21.20
2018-04-19T07:25:57.344Z,21.07
2018-04-19T07:27:02.413Z,21.07
2018-04-19T07:28:08.114Z,21.20
2018-04-19T07:29:13.445Z,21.50
2018-04-19T07:30:18.632Z,21.83
2018-04-19T07:31:25.090Z,21.95
2018-04-19T07:32:30.197Z,22.41
2018-04-19T07:33:36.011Z,22.00
2018-04-19T07:34:41.534Z,22.13
2018-04-19T07:35:46.469Z,22.16
2018-04-19T07:36:51.191Z,22.53
2018-04-19T07:37:57.230Z,22.79
2018-04-19T07:39:03.762Z,23.13
2018-04-19T07:40:09.352Z,23.52
2018-04-19T07:41:14.100Z,23.24
2018-04-19T07:42:20.398Z,23.13
2018-04-19T07:43:25.916Z,22.70
2018-04-19T07:44:31.662Z,23.20
2018-04-19T07:45:36.438Z,23.22
2018-04-19T07:46:41.950Z,22.95
2018-04-19T07:47:46.795Z,23.17
2018-04-19T07:48:52.190Z,23.35
2018-04-19T07:49:57.144Z,23.22
2018-04-19T07:51:03.550Z,23.20
2018-04-19T07:52:08.946Z,23.16
2018-04-19T07:53:14.166Z,23.24
2018-04-19T07:54:19.548Z,23.50
2018-04-19T07:55:24.716Z,23.60
2018-04-19T07:56:30.343Z,23.33
2018-04-19T07:57:36.057Z,23.30
2018-04-19T07:58:41.210Z,23.53
2018-04-19T07:59:45.907Z,23.39
2018-04-19T08:00:50.981Z,23.31
2018-04-19T08:01:56.657Z,23.35
2018-04-19T08:03:01.274Z,23.29
2018-04-19T08:04:06.425Z,23.19
2018-04-19T08:05:11.575Z,23.77
2018-04-19T08:06:16.241Z,24.00
2018-04-19T08:07:20.890Z,24.23
2018-04-19T08:08:25.548Z,24.29
2018-04-19T08:09:30.175Z,24.49
2018-04-19T08:10:34.907Z,24.57
2018-04-19T08:11:39.506Z,24.73
2018-04-19T08:12:44.208Z,24.44
2018-04-19T08:13:49.280Z,24.55
2018-04-19T08:14:55.220Z,24.56
2018-04-19T08:16:01.301Z,24.92
2018-04-19T08:17:06.659Z,25.06
2018-04-19T08:18:11.458Z,24.58
2018-04-19T08:19:16.659Z,24.91
2018-04-19T08:20:21.672Z,25.21
2018-04-19T08:21:27.033Z,24.83
2018-04-19T08:22:32.604Z,24.84
2018-04-19T08:23:38.681Z,24.99
2018-04-19T08:24:44.423Z,25.30
2018-04-19T08:25:49.600Z,25.72
2018-04-19T08:26:54.482Z,25.68
2018-04-19T08:27:59.545Z,25.61
2018-04-19T08:29:05.129Z,25.88
2018-04-19T08:30:10.340Z,25.74
2018-04-19T08:31:15.879Z,25.21
2018-04-19T08:32:21.437Z,25.16
2018-04-19T08:33:27.788Z,25.04
2018-04-19T08:34:33.561Z,25.04
2018-04-19T08:35:39.370Z,25.04
2018-04-19T08:36:44.385Z,25.30
2018-04-19T08:37:49.204Z,24.89
2018-04-19T08:38:55.055Z,24.56
2018-04-19T08:39:59.964Z,23.98
2018-04-19T08:41:04.864Z,23.87
2018-04-19T08:42:12.234Z,24.01
2018-04-19T08:43:17.488Z,24.29
2018-04-19T08:44:22.584Z,23.94
2018-04-19T08:45:28.098Z,24.01
2018-04-19T08:46:32.884Z,23.76
2018-04-19T08:47:41.209Z,23.59
2018-04-19T08:48:46.884Z,23.66
2018-04-19T08:49:51.894Z,23.60
2018-04-19T08:50:56.482Z,23.76
2018-04-19T08:52:02.488Z,23.66
2018-04-19T08:53:07.877Z,23.46
2018-04-19T08:54:12.642Z,24.00
2018-04-19T08:55:18.126Z,23.81
2018-04-19T08:56:23.003Z,23.77
2018-04-19T08:57:27.737Z,23.80
2018-04-19T08:58:32.665Z,23.88
2018-04-19T08:59:38.227Z,23.95
2018-04-19T09:00:44.453Z,24.03
2018-04-19T09:01:50.518Z,24.26
2018-04-19T09:02:56.364Z,24.05
2018-04-19T09:04:02.332Z,24.21
2018-04-19T09:05:10.696Z,24.48
2018-04-19T09:06:15.267Z,23.75
2018-04-19T09:07:19.877Z,23.80
2018-04-19T09:08:24.803Z,23.37
2018-04-19T09:09:29.689Z,23.35
2018-04-19T09:10:35.110Z,23.40
2018-04-19T09:11:40.275Z,23.80
2018-04-19T09:12:46.299Z,23.83
2018-04-19T09:13:52.394Z,23.82
2018-04-19T09:14:57.004Z,24.05
2018-04-19T09:16:02.704Z,24.23
2018-04-19T09:17:07.872Z,24.65
2018-04-19T09:18:12.688Z,25.04
2018-04-19T09:19:19.528Z,25.33
2018-04-19T09:20:24.220Z,25.28
2018-04-19T09:21:29.266Z,24.62
2018-04-19T09:22:34.345Z,24.08
2018-04-19T09:23:39.532Z,24.27
2018-04-19T09:24:44.757Z,24.53
2018-04-19T09:25:51.804Z,25.13
2018-04-19T09:26:56.628Z,25.11
2018-04-19T09:28:01.827Z,25.25
2018-04-19T09:29:07.806Z,25.16
2018-04-19T09:30:13.393Z,24.49
2018-04-19T09:31:19.342Z,24.47
2018-04-19T09:32:24.999Z,24.62
2018-04-19T09:33:32.020Z,24.42
2018-04-19T09:34:37.036Z,24.07
2018-04-19T09:35:42.644Z,24.42
2018-04-19T09:36:47.391Z,24.39
2018-04-19T09:37:53.035Z,24.39
2018-04-19T09:38:59.304Z,24.26
2018-04-19T09:40:04.479Z,24.26
2018-04-19T09:41:09.461Z,24.48
2018-04-19T09:42:15.752Z,24.27
2018-04-19T09:43:20.751Z,24.41
2018-04-19T09:44:26.755Z,24.27
2018-04-19T09:45:32.436Z,24.54
2018-04-19T09:46:37.235Z,24.59
2018-04-19T09:47:41.718Z,24.41
2018-04-19T09:48:46.724Z,24.47
2018-04-19T09:49:52.633Z,24.68
2018-04-19T09:50:59.750Z,24.46
2018-04-19T09:52:05.495Z,24.37
2018-04-19T09:53:10.358Z,24.57
2018-04-19T09:54:14.984Z,24.27
2018-04-19T09:55:19.546Z,24.62
2018-04-19T09:56:24.132Z,24.52
2018-04-19T09:57:28.670Z,24.43
2018-04-19T09:58:33.598Z,24.58
2018-04-19T09:59:39.193Z,24.48
2018-04-19T10:00:45.830Z,24.73
2018-04-19T10:01:52.181Z,24.88
2018-04-19T10:02:58.864Z,24.74
2018-04-19T10:04:03.585Z,25.11
2018-04-19T10:05:12.581Z,25.34
2018-04-19T10:06:19.155Z,25.06
2018-04-19T10:07:24.148Z,24.94
2018-04-19T10:08:28.828Z,24.84
2018-04-19T10:09:33.444Z,24.94
2018-04-19T10:10:38.377Z,25.32
2018-04-19T10:11:42.980Z,25.62
2018-04-19T10:12:47.852Z,25.63
2018-04-19T10:13:52.427Z,25.83
2018-04-19T10:14:56.982Z,25.91
2018-04-19T10:16:01.913Z,26.04
2018-04-19T10:17:07.140Z,26.04
2018-04-19T10:18:11.896Z,25.84
2018-04-19T10:19:17.609Z,26.18
2018-04-19T10:20:23.535Z,26.52
2018-04-19T10:21:28.541Z,26.11
2018-04-19T10:22:33.930Z,26.28
2018-04-19T10:23:39.075Z,26.55
2018-04-19T10:24:45.102Z,26.38
2018-04-19T10:25:50.349Z,26.12
2018-04-19T10:26:55.371Z,26.32
2018-04-19T10:28:03.352Z,26.59
2018-04-19T10:29:08.058Z,26.60
2018-04-19T10:30:14.504Z,26.62
2018-04-19T10:31:19.459Z,26.26
2018-04-19T10:32:25.213Z,26.27
2018-04-19T10:33:30.924Z,26.13
2018-04-19T10:34:36.769Z,26.15
2018-04-19T10:35:42.502Z,25.85
2018-04-19T10:36:48.143Z,25.68
2018-04-19T10:37:52.883Z,25.66
2018-04-19T10:38:58.489Z,25.57
2018-04-19T10:40:03.616Z,25.36
2018-04-19T10:41:08.794Z,25.73
2018-04-19T10:42:14.112Z,25.92
2018-04-19T10:43:20.096Z,25.85
2018-04-19T10:44:25.266Z,25.75
2018-04-19T10:45:30.132Z,25.59
2018-04-19T10:46:35.979Z,25.52
2018-04-19T10:47:41.341Z,25.48
2018-04-19T10:48:47.225Z,25.53
2018-04-19T10:49:52.492Z,25.74
2018-04-19T10:51:01.325Z,25.82
2018-04-19T10:52:06.431Z,25.41
2018-04-19T10:53:10.992Z,25.42
2018-04-19T10:54:16.089Z,25.67
2018-04-19T10:55:21.778Z,25.93
2018-04-19T10:56:26.371Z,25.83
2018-04-19T10:57:30.956Z,25.83
2018-04-19T10:58:35.579Z,25.47
2018-04-19T10:59:40.134Z,25.44
2018-04-19T11:00:44.821Z,25.53
2018-04-19T11:01:50.539Z,26.09
2018-04-19T11:02:55.310Z,26.40
2018-04-19T11:03:59.836Z,26.49
2018-04-19T11:05:04.482Z,26.42
2018-04-19T11:06:09.104Z,26.03
2018-04-19T11:07:13.615Z,25.86
2018-04-19T11:08:18.467Z,25.87
2018-04-19T11:09:23.392Z,25.99
2018-04-19T11:10:29.065Z,26.43
2018-04-19T11:11:33.777Z,26.24
2018-04-19T11:12:38.431Z,26.54
2018-04-19T11:13:43.153Z,26.56
2018-04-19T11:14:48.314Z,26.38
2018-04-19T11:15:52.976Z,26.50
2018-04-19T11:16:57.648Z,26.68
2018-04-19T11:18:02.228Z,26.44
2018-04-19T11:19:06.767Z,26.43
2018-04-19T11:20:11.428Z,26.79
2018-04-19T11:21:16.357Z,26.59
2018-04-19T11:22:20.961Z,26.81
2018-04-19T11:23:25.633Z,26.31
2018-04-19T11:24:30.969Z,26.23
2018-04-19T11:25:35.768Z,26.21
2018-04-19T11:26:40.479Z,26.40
2018-04-19T11:27:46.053Z,26.42
2018-04-19T11:28:51.494Z,26.43
2018-04-19T11:29:58.139Z,26.75
2018-04-19T11:31:03.238Z,26.78
2018-04-19T11:32:07.824Z,26.53
2018-04-19T11:33:13.944Z,26.82
2018-04-19T11:34:19.335Z,26.94
2018-04-19T11:35:24.133Z,26.64
2018-04-19T11:36:29.002Z,26.65
2018-04-19T11:37:34.885Z,26.71
2018-04-19T11:38:40.042Z,26.66
2018-04-19T11:39:44.879Z,26.63
2018-04-19T11:40:51.539Z,26.60
2018-04-19T11:41:57.664Z,26.95
2018-04-19T11:43:02.331Z,26.94
2018-04-19T11:44:08.267Z,26.80
2018-04-19T11:45:12.813Z,26.78
2018-04-19T11:46:17.883Z,26.83
2018-04-19T11:47:22.865Z,26.72
2018-04-19T11:48:27.452Z,26.90
2018-04-19T11:49:32.436Z,26.73
2018-04-19T11:50:38.071Z,26.92
2018-04-19T11:51:43.826Z,26.98
2018-04-19T11:52:49.103Z,27.28
2018-04-19T11:53:53.795Z,27.45
2018-04-19T11:54:58.428Z,27.25
2018-04-19T11:56:02.982Z,27.36
2018-04-19T11:57:07.575Z,27.44
2018-04-19T11:58:12.104Z,27.72
2018-04-19T11:59:17.677Z,27.79
2018-04-19T12:00:22.853Z,27.68
2018-04-19T12:01:28.479Z,27.74
2018-04-19T12:02:33.529Z,28.16
2018-04-19T12:03:40.017Z,28.48
2018-04-19T12:04:44.639Z,28.04
2018-04-19T12:05:49.821Z,27.66
2018-04-19T12:06:56.174Z,27.28
2018-04-19T12:08:01.096Z,27.04
2018-04-19T12:09:06.841Z,26.67
2018-04-19T12:10:12.157Z,26.78
2018-04-19T12:11:18.217Z,26.68
2018-04-19T12:12:23.381Z,26.99
2018-04-19T12:13:29.419Z,27.44
2018-04-19T12:14:35.165Z,27.26
2018-04-19T12:15:40.552Z,27.70
2018-04-19T12:16:46.960Z,27.75
2018-04-19T12:17:52.801Z,27.33
2018-04-19T12:18:58.112Z,27.15
2018-04-19T12:20:04.406Z,27.11
2018-04-19T12:21:11.633Z,27.04
2018-04-19T12:22:17.203Z,27.31
2018-04-19T12:23:24.125Z,27.11
2018-04-19T12:24:29.094Z,27.15
2018-04-19T12:25:35.083Z,27.35
2018-04-19T12:26:39.763Z,27.27
2018-04-19T12:27:45.008Z,27.27
2018-04-19T12:28:50.479Z,27.31
2018-04-19T12:29:55.349Z,27.54
2018-04-19T12:31:00.356Z,27.06
2018-04-19T12:32:06.523Z,27.06
2018-04-19T12:33:11.176Z,27.45
2018-04-19T12:34:15.678Z,27.77
2018-04-19T12:35:21.508Z,27.70
2018-04-19T12:36:26.927Z,27.50
2018-04-19T12:37:31.698Z,27.74
2018-04-19T12:38:36.169Z,27.57
2018-04-19T12:39:41.438Z,27.33
2018-04-19T12:40:46.072Z,27.29
2018-04-19T12:41:50.796Z,27.33
2018-04-19T12:42:56.440Z,27.29
2018-04-19T12:44:02.840Z,27.34
2018-04-19T12:45:07.439Z,27.55
2018-04-19T12:46:12.081Z,27.62
2018-04-19T12:47:16.665Z,27.57
2018-04-19T12:48:21.285Z,27.66
2018-04-19T12:49:27.428Z,27.73
2018-04-19T12:50:32.159Z,28.23
2018-04-19T12:51:37.371Z,28.28
2018-04-19T12:52:42.500Z,27.55
2018-04-19T12:53:47.178Z,27.82
2018-04-19T12:54:51.850Z,27.84
2018-04-19T12:55:56.892Z,28.25
2018-04-19T12:57:01.882Z,28.32
2018-04-19T12:58:06.964Z,28.55
2018-04-19T12:59:11.758Z,28.46
2018-04-19T13:00:17.458Z,28.47
2018-04-19T13:01:22.167Z,28.71
2018-04-19T13:02:27.096Z,28.18
2018-04-19T13:03:32.503Z,28.25
2018-04-19T13:04:38.673Z,28.14
2018-04-19T13:05:43.916Z,28.41
2018-04-19T13:06:49.298Z,28.68
2018-04-19T13:07:54.412Z,28.35
2018-04-19T13:08:59.382Z,28.39
2018-04-19T13:10:04.029Z,28.41
2018-04-19T13:11:08.864Z,28.31
2018-04-19T13:12:14.742Z,28.17
2018-04-19T13:13:20.119Z,28.42
2018-04-19T13:14:24.729Z,28.02
2018-04-19T13:15:29.883Z,28.42
2018-04-19T13:16:34.361Z,28.85
2018-04-19T13:17:39.072Z,29.35
2018-04-19T13:18:44.270Z,29.38
2018-04-19T13:19:48.819Z,28.92
2018-04-19T13:20:54.065Z,28.03
2018-04-19T13:22:00.297Z,28.27
2018-04-19T13:23:05.941Z,28.70
2018-04-19T13:24:11.405Z,28.53
2018-04-19T13:25:16.167Z,28.35
2018-04-19T13:26:20.031Z,28.27
2018-04-19T13:27:24.578Z,28.47
2018-04-19T13:28:29.626Z,28.55
2018-04-19T13:29:34.279Z,28.06
2018-04-19T13:30:39.716Z,28.25
2018-04-19T13:31:44.407Z,28.27
2018-04-19T13:32:48.972Z,28.66
2018-04-19T13:33:54.157Z,28.96
2018-04-19T13:35:00.771Z,28.59
2018-04-19T13:36:05.371Z,28.33
2018-04-19T13:37:09.960Z,28.20
2018-04-19T13:38:16.245Z,28.81
2018-04-19T13:39:20.859Z,28.60
2018-04-19T13:40:25.433Z,28.76
2018-04-19T13:41:30.525Z,28.68
2018-04-19T13:42:36.239Z,28.41
2018-04-19T13:43:40.815Z,28.85
2018-04-19T13:44:45.595Z,28.92
2018-04-19T13:45:50.334Z,28.44
2018-04-19T13:46:54.915Z,28.52
2018-04-19T13:48:01.534Z,28.34
2018-04-19T13:49:06.746Z,28.43
2018-04-19T13:50:11.612Z,28.60
2018-04-19T13:51:17.175Z,28.41
2018-04-19T13:52:23.330Z,28.63
2018-04-19T13:53:30.672Z,28.85
2018-04-19T13:54:35.246Z,29.10
2018-04-19T13:55:39.800Z,29.47
2018-04-19T13:56:46.188Z,29.76
2018-04-19T13:57:52.214Z,29.65
2018-04-19T13:58:56.688Z,30.14
2018-04-19T14:00:04.014Z,30.16
2018-04-19T14:01:08.671Z,30.25
2018-04-19T14:02:13.199Z,29.76
2018-04-19T14:03:17.784Z,30.36
2018-04-19T14:04:22.371Z,30.61